SBOSBO BLR / VOBL
Speedbird OnlineSpeedbird Online BLR / VOBL

Kempegowda International Airport
04:15 17°C

Location Bangalore, India
Latitude: 13.1979
Longitude: 77.706299
Web Airport Website | Wikipedia
Altitude 914 Meter / 3000 Feet
Distance 8,006 KM / 4,975 Miles
from London.
Time Zone UTC +5.5 hours (Asia/Calcutta)
Codes IATA: BLR
ICAO: VOBL
Currency £1 equals INR 99.86
Runways
RunwayLength (m)Surface
09L4000Asphalt
09R4000Asphalt
27L4000Asphalt
27R4000Asphalt
Radio
TypeDescriptionFrequency
APP121.25
ATIS128.675
DELIVERY121.82
SMC121.65
TOWER124.35
Live ATC
METAR VOBL 081430Z 05006KT 8000 NSC 24/11 Q1016 NOSIG
TAF TAF VOBL 081400Z 0815/0824 09010KT 6000 FEW015 BECMG 0822/0823 4000 BR SCT008
Weather As Of 09 Feb 2023 04:15
Description Overcast clouds
Wind 9 km/h from South-East (130°)
Cloud Cover 95%
Precipitation Rain: none, Snow: none
Sunrise 06:44
Sunset 18:22
Lounges 080 BLR International Lounge, International
BLR International Lounge TEMPORARILY CLOSED , International Terminal
The Bangalore International Lounge, International Terminal
Rotations During the last 90 days there were
75 flights from LHR
76 flights to LHR



Support Speedbird Online

© 2017-2023 Speedbird Online